createdAt,value
2023-02-04T00:01:34.288Z,4.00
2023-02-04T00:04:01.412Z,4.00
2023-02-04T00:06:28.342Z,4.00
2023-02-04T00:08:55.384Z,4.00
2023-02-04T00:11:22.309Z,4.00
2023-02-04T00:13:49.180Z,4.00
2023-02-04T00:16:16.261Z,4.00
2023-02-04T00:18:43.277Z,4.00
2023-02-04T00:21:10.199Z,4.00
2023-02-04T00:23:38.301Z,4.00
2023-02-04T00:26:07.358Z,4.00
2023-02-04T00:28:34.865Z,4.00
2023-02-04T00:31:01.930Z,4.00
2023-02-04T00:33:29.232Z,4.10
2023-02-04T00:35:56.381Z,4.00
2023-02-04T00:38:23.736Z,4.10
2023-02-04T00:40:50.681Z,4.10
2023-02-04T00:43:18.726Z,4.10
2023-02-04T00:45:45.767Z,4.10
2023-02-04T00:48:12.759Z,4.10
2023-02-04T00:50:39.946Z,4.10
2023-02-04T00:53:07.580Z,4.10
2023-02-04T00:55:34.620Z,4.10
2023-02-04T00:58:01.821Z,4.00
2023-02-04T01:00:29.156Z,4.00
2023-02-04T01:02:56.393Z,4.00
2023-02-04T01:05:23.384Z,4.00
2023-02-04T01:07:50.384Z,3.90
2023-02-04T01:10:18.022Z,4.00
2023-02-04T01:12:45.149Z,4.00
2023-02-04T01:15:12.469Z,4.00
2023-02-04T01:17:39.472Z,4.00
2023-02-04T01:20:06.860Z,4.00
2023-02-04T01:22:33.902Z,3.90
2023-02-04T01:25:00.929Z,4.00
2023-02-04T01:27:44.594Z,3.90
2023-02-04T01:30:13.432Z,3.90
2023-02-04T01:32:41.018Z,4.00
2023-02-04T01:35:08.334Z,3.90
2023-02-04T01:37:35.380Z,4.00
2023-02-04T01:40:02.438Z,4.00
2023-02-04T01:42:29.486Z,4.00
2023-02-04T01:44:56.453Z,4.00
2023-02-04T01:47:24.834Z,4.00
2023-02-04T01:49:54.311Z,4.10
2023-02-04T01:52:23.137Z,4.10
2023-02-04T01:54:51.834Z,4.20
2023-02-04T01:57:18.964Z,4.20
2023-02-04T01:59:47.489Z,4.20
2023-02-04T02:02:42.442Z,4.30
2023-02-04T02:05:12.292Z,4.30
2023-02-04T02:07:39.552Z,4.30
2023-02-04T02:10:09.528Z,4.20
2023-02-04T02:12:37.271Z,4.20
2023-02-04T02:15:05.594Z,4.20
2023-02-04T02:17:33.523Z,4.20
2023-02-04T02:20:00.750Z,4.20
2023-02-04T02:22:35.493Z,4.10
2023-02-04T02:25:07.536Z,4.10
2023-02-04T02:27:34.534Z,4.10
2023-02-04T02:30:01.587Z,4.10
2023-02-04T02:32:28.802Z,4.00
2023-02-04T02:34:55.767Z,4.00
2023-02-04T02:37:22.854Z,4.00
2023-02-04T02:39:49.798Z,4.00
2023-02-04T02:42:19.648Z,4.00
2023-02-04T02:44:49.851Z,4.00
2023-02-04T02:47:20.137Z,4.00
2023-02-04T02:49:51.058Z,4.00
2023-02-04T02:52:19.009Z,4.00
2023-02-04T02:54:46.942Z,4.00
2023-02-04T02:57:19.760Z,3.90
2023-02-04T02:59:47.611Z,3.90
2023-02-04T03:02:18.916Z,3.90
2023-02-04T03:04:51.154Z,3.90
2023-02-04T03:07:20.922Z,3.90
2023-02-04T03:09:49.131Z,3.80
2023-02-04T03:12:16.191Z,3.80
2023-02-04T03:14:43.251Z,3.80
2023-02-04T03:17:11.206Z,3.80
2023-02-04T03:19:39.614Z,3.80
2023-02-04T03:22:08.065Z,3.80
2023-02-04T03:24:37.054Z,3.80
2023-02-04T03:27:04.522Z,3.80
2023-02-04T03:29:31.675Z,3.80
2023-02-04T03:32:00.143Z,3.80
2023-02-04T03:34:27.463Z,3.90
2023-02-04T03:36:54.665Z,3.90
2023-02-04T03:39:21.791Z,3.90
2023-02-04T03:41:48.787Z,4.00
2023-02-04T03:44:15.817Z,3.90
2023-02-04T03:46:42.791Z,4.00
2023-02-04T03:49:09.797Z,3.90
2023-02-04T03:51:36.823Z,3.90
2023-02-04T03:54:04.089Z,3.90
2023-02-04T03:56:31.087Z,3.90
2023-02-04T03:58:58.088Z,3.80
2023-02-04T04:01:25.146Z,3.80
2023-02-04T04:03:52.303Z,3.80
2023-02-04T04:06:19.469Z,3.80
2023-02-04T04:08:46.494Z,3.80
2023-02-04T04:11:13.459Z,3.80
2023-02-04T04:13:40.619Z,3.80
2023-02-04T04:16:09.254Z,3.80
2023-02-04T04:18:36.372Z,3.80
2023-02-04T04:21:03.750Z,3.80
2023-02-04T04:23:30.836Z,3.80
2023-02-04T04:25:57.819Z,3.80
2023-02-04T04:28:24.845Z,3.80
2023-02-04T04:30:52.204Z,3.70
2023-02-04T04:33:19.256Z,3.70
2023-02-04T04:35:46.288Z,3.70
2023-02-04T04:38:13.509Z,3.70
2023-02-04T04:40:40.555Z,3.70
2023-02-04T04:43:07.554Z,3.70
2023-02-04T04:45:34.631Z,3.70
2023-02-04T04:48:01.804Z,3.70
2023-02-04T04:50:28.883Z,3.60
2023-02-04T04:52:55.935Z,3.60
2023-02-04T04:55:22.943Z,3.60
2023-02-04T04:57:50.125Z,3.60
2023-02-04T05:00:20.110Z,3.60
2023-02-04T05:02:47.822Z,3.60
2023-02-04T05:05:15.177Z,3.60
2023-02-04T05:07:42.217Z,3.60
2023-02-04T05:10:09.636Z,3.60
2023-02-04T05:12:36.710Z,3.70
2023-02-04T05:15:03.943Z,3.60
2023-02-04T05:17:30.945Z,3.70
2023-02-04T05:19:57.919Z,3.70
2023-02-04T05:22:24.975Z,3.80
2023-02-04T05:24:51.940Z,3.80
2023-02-04T05:27:19.027Z,3.80
2023-02-04T05:29:46.234Z,3.80
2023-02-04T05:32:13.177Z,3.90
2023-02-04T05:34:40.205Z,3.90
2023-02-04T05:37:07.320Z,3.90
2023-02-04T05:39:34.372Z,4.00
2023-02-04T05:42:01.346Z,4.10
2023-02-04T05:44:29.198Z,4.20
2023-02-04T05:46:56.130Z,4.30
2023-02-04T05:49:23.883Z,4.40
2023-02-04T05:51:50.969Z,4.50
2023-02-04T05:54:20.560Z,4.50
2023-02-04T05:56:48.184Z,4.50
2023-02-04T05:59:15.311Z,4.50
2023-02-04T06:01:42.295Z,4.40
2023-02-04T06:04:09.358Z,4.40
2023-02-04T06:06:36.580Z,4.40
2023-02-04T06:09:04.192Z,4.30
2023-02-04T06:11:31.135Z,4.30
2023-02-04T06:13:58.282Z,4.30
2023-02-04T06:16:25.343Z,4.20
2023-02-04T06:18:52.304Z,4.20
2023-02-04T06:21:19.308Z,4.20
2023-02-04T06:23:46.549Z,4.20
2023-02-04T06:26:13.613Z,4.20
2023-02-04T06:28:40.498Z,4.20
2023-02-04T06:31:09.230Z,4.10
2023-02-04T06:33:37.238Z,4.10
2023-02-04T06:36:05.004Z,4.10
2023-02-04T06:38:31.967Z,4.10
2023-02-04T06:40:58.858Z,4.20
2023-02-04T06:43:27.644Z,4.20
2023-02-04T06:45:54.711Z,4.20
2023-02-04T06:48:21.838Z,4.30
2023-02-04T06:50:48.763Z,4.30
2023-02-04T06:53:15.802Z,4.40
2023-02-04T06:55:42.813Z,4.40
2023-02-04T06:58:09.831Z,4.50
2023-02-04T07:00:36.830Z,4.60
2023-02-04T07:03:03.880Z,4.60
2023-02-04T07:05:31.428Z,4.70
2023-02-04T07:07:58.399Z,4.70
2023-02-04T07:10:25.330Z,4.80
2023-02-04T07:12:52.273Z,4.80
2023-02-04T07:15:19.236Z,4.90
2023-02-04T07:17:46.222Z,5.00
2023-02-04T07:20:13.224Z,5.20
2023-02-04T07:22:40.242Z,5.70
2023-02-04T07:25:07.486Z,6.60
2023-02-04T07:27:34.563Z,7.60
2023-02-04T07:30:01.671Z,8.70
2023-02-04T07:32:32.845Z,9.80
2023-02-04T07:35:00.474Z,10.70
2023-02-04T07:37:27.835Z,11.60
2023-02-04T07:39:55.137Z,12.40
2023-02-04T07:42:22.078Z,13.20
2023-02-04T07:44:54.831Z,13.80
2023-02-04T07:47:21.753Z,14.40
2023-02-04T07:49:48.759Z,15.00
2023-02-04T07:52:15.785Z,15.30
2023-02-04T07:54:43.001Z,15.60
2023-02-04T07:57:10.156Z,15.90
2023-02-04T07:59:37.158Z,16.30
2023-02-04T08:02:04.322Z,16.60
2023-02-04T08:04:31.392Z,16.70
2023-02-04T08:06:58.734Z,16.80
2023-02-04T08:09:27.293Z,16.60
2023-02-04T08:11:54.607Z,16.30
2023-02-04T08:14:21.600Z,15.90
2023-02-04T08:16:48.775Z,15.50
2023-02-04T08:19:19.182Z,15.10
2023-02-04T08:21:46.266Z,14.70
2023-02-04T08:24:14.112Z,14.40
2023-02-04T08:26:42.215Z,14.30
2023-02-04T08:29:09.649Z,14.40
2023-02-04T08:31:37.790Z,14.50
2023-02-04T08:34:05.900Z,14.70
2023-02-04T08:36:33.393Z,15.00
2023-02-04T08:39:00.311Z,15.30
2023-02-04T08:41:27.433Z,15.50
2023-02-04T08:43:54.333Z,15.70
2023-02-04T08:46:21.276Z,16.00
2023-02-04T08:48:48.331Z,16.40
2023-02-04T08:51:15.446Z,17.00
2023-02-04T08:53:42.491Z,17.60
2023-02-04T08:56:10.411Z,18.10
2023-02-04T08:58:37.306Z,18.60
2023-02-04T09:01:04.511Z,19.00
2023-02-04T09:03:32.116Z,19.30
2023-02-04T09:05:59.056Z,19.60
2023-02-04T09:08:25.966Z,19.60
2023-02-04T09:10:52.868Z,19.90
2023-02-04T09:13:19.712Z,20.50
2023-02-04T09:15:46.700Z,21.10
2023-02-04T09:18:21.990Z,21.70
2023-02-04T09:20:49.782Z,22.30
2023-02-04T09:23:16.877Z,23.00
2023-02-04T09:25:44.407Z,23.50
2023-02-04T09:28:12.696Z,23.50
2023-02-04T09:30:40.349Z,23.60
2023-02-04T09:33:07.773Z,23.80
2023-02-04T09:35:34.781Z,23.90
2023-02-04T09:38:04.685Z,23.80
2023-02-04T09:40:34.807Z,23.60
2023-02-04T09:43:02.664Z,23.60
2023-02-04T09:45:30.781Z,23.10
2023-02-04T09:47:58.374Z,22.50
2023-02-04T09:50:26.501Z,22.30
2023-02-04T09:52:54.504Z,22.10
2023-02-04T09:55:22.797Z,22.30
2023-02-04T09:57:49.653Z,22.50
2023-02-04T10:00:16.809Z,22.30
2023-02-04T10:02:43.974Z,22.40
2023-02-04T10:05:14.887Z,22.40
2023-02-04T10:07:42.292Z,22.30
2023-02-04T10:10:19.594Z,22.50
2023-02-04T10:12:47.391Z,23.00
2023-02-04T10:15:15.022Z,23.70
2023-02-04T10:17:42.779Z,24.00
2023-02-04T10:20:14.193Z,23.90
2023-02-04T10:22:41.351Z,24.10
2023-02-04T10:25:15.945Z,24.30
2023-02-04T10:27:59.616Z,24.20
2023-02-04T10:30:28.101Z,24.10
2023-02-04T10:32:54.960Z,23.60
2023-02-04T10:35:22.521Z,23.70
2023-02-04T10:38:02.390Z,24.00
2023-02-04T10:40:36.056Z,24.00
2023-02-04T10:43:15.316Z,23.60
2023-02-04T10:45:47.246Z,23.50
2023-02-04T10:48:17.902Z,23.40
2023-02-04T10:50:46.002Z,23.50
2023-02-04T10:53:33.765Z,23.90
2023-02-04T10:56:00.778Z,24.20
2023-02-04T10:58:28.929Z,24.50
2023-02-04T11:00:55.932Z,24.80
2023-02-04T11:03:24.254Z,24.80
2023-02-04T11:05:51.485Z,24.90
2023-02-04T11:08:21.448Z,24.50
2023-02-04T11:10:50.298Z,24.10
2023-02-04T11:13:21.701Z,24.30
2023-02-04T11:16:27.227Z,24.60
2023-02-04T11:18:55.046Z,24.80
2023-02-04T11:21:24.885Z,24.90
2023-02-04T11:24:04.109Z,24.90
2023-02-04T11:26:35.398Z,24.70
2023-02-04T11:29:02.216Z,24.60
2023-02-04T11:31:49.433Z,24.50
2023-02-04T11:34:16.280Z,24.30
2023-02-04T11:36:59.071Z,24.10
2023-02-04T11:39:28.399Z,23.80
2023-02-04T11:41:55.257Z,23.80
2023-02-04T11:44:23.147Z,24.10
2023-02-04T11:46:51.624Z,24.30
2023-02-04T11:49:19.626Z,24.10
2023-02-04T11:51:46.732Z,23.80
2023-02-04T11:54:16.329Z,23.60
2023-02-04T11:56:43.185Z,23.50
2023-02-04T11:59:11.334Z,23.60
2023-02-04T12:01:38.366Z,23.60
2023-02-04T12:04:07.238Z,23.50
2023-02-04T12:06:36.275Z,23.50
2023-02-04T12:09:23.370Z,23.70
2023-02-04T12:11:53.224Z,23.50
2023-02-04T12:14:20.465Z,23.40
2023-02-04T12:16:56.297Z,23.50
2023-02-04T12:19:23.407Z,23.60
2023-02-04T12:21:50.283Z,23.50
2023-02-04T12:24:17.144Z,23.40
2023-02-04T12:26:43.942Z,23.10
2023-02-04T12:29:10.731Z,22.90
2023-02-04T12:31:37.698Z,22.70
2023-02-04T12:34:04.566Z,22.80
2023-02-04T12:36:31.468Z,23.20
2023-02-04T12:39:02.898Z,23.60
2023-02-04T12:41:29.757Z,23.80
2023-02-04T12:43:56.600Z,23.90
2023-02-04T12:46:23.519Z,24.10
2023-02-04T12:48:50.444Z,24.40
2023-02-04T12:51:17.272Z,24.60
2023-02-04T12:53:44.116Z,24.90
2023-02-04T12:56:10.918Z,25.00
2023-02-04T12:58:37.748Z,24.80
2023-02-04T13:01:04.776Z,24.70
2023-02-04T13:03:32.258Z,24.50
2023-02-04T13:05:59.161Z,24.50
2023-02-04T13:08:26.055Z,24.50
2023-02-04T13:10:52.932Z,24.60
2023-02-04T13:13:20.127Z,24.70
2023-02-04T13:15:47.006Z,24.80
2023-02-04T13:18:15.247Z,25.20
2023-02-04T13:20:43.589Z,25.50
2023-02-04T13:23:10.378Z,25.70
2023-02-04T13:25:37.295Z,25.70
2023-02-04T13:28:04.186Z,25.70
2023-02-04T13:30:31.060Z,25.70
2023-02-04T13:32:58.298Z,25.60
2023-02-04T13:35:25.476Z,25.40
2023-02-04T13:37:52.351Z,25.30
2023-02-04T13:40:19.254Z,25.10
2023-02-04T13:42:46.115Z,25.10
2023-02-04T13:45:13.101Z,25.00
2023-02-04T13:47:39.947Z,24.90
2023-02-04T13:50:07.133Z,24.80
2023-02-04T13:52:34.555Z,24.80
2023-02-04T13:55:01.678Z,24.70
2023-02-04T13:57:30.257Z,24.50
2023-02-04T13:59:57.043Z,24.40
2023-02-04T14:02:24.088Z,24.10
2023-02-04T14:04:51.110Z,23.60
2023-02-04T14:07:17.955Z,23.50
2023-02-04T14:09:44.757Z,23.40
2023-02-04T14:12:11.645Z,23.30
2023-02-04T14:14:38.461Z,23.30
2023-02-04T14:17:05.263Z,23.10
2023-02-04T14:19:32.090Z,23.10
2023-02-04T14:21:58.978Z,23.00
2023-02-04T14:24:25.806Z,22.90
2023-02-04T14:26:52.665Z,22.70
2023-02-04T14:29:19.527Z,22.70
2023-02-04T14:31:46.363Z,22.70
2023-02-04T14:34:13.353Z,22.70
2023-02-04T14:36:40.185Z,22.70
2023-02-04T14:39:07.047Z,22.40
2023-02-04T14:41:33.874Z,22.30
2023-02-04T14:44:01.600Z,22.10
2023-02-04T14:46:28.478Z,21.70
2023-02-04T14:48:55.358Z,21.30
2023-02-04T14:51:22.246Z,20.70
2023-02-04T14:53:49.054Z,20.10
2023-02-04T14:56:16.249Z,19.70
2023-02-04T14:58:43.123Z,19.40
2023-02-04T15:01:10.062Z,18.90
2023-02-04T15:03:36.957Z,18.50
2023-02-04T15:06:03.910Z,18.30
2023-02-04T15:08:32.796Z,18.00
2023-02-04T15:10:59.806Z,17.50
2023-02-04T15:13:28.676Z,16.90
2023-02-04T15:15:55.798Z,16.30
2023-02-04T15:18:23.022Z,15.80
2023-02-04T15:20:49.953Z,15.40
2023-02-04T15:23:18.127Z,15.10
2023-02-04T15:25:45.459Z,14.90
2023-02-04T15:28:13.014Z,14.70
2023-02-04T15:30:40.357Z,14.50
2023-02-04T15:33:07.370Z,14.30
2023-02-04T15:35:34.296Z,14.20
2023-02-04T15:38:01.286Z,14.00
2023-02-04T15:40:30.137Z,13.80
2023-02-04T15:42:57.202Z,13.60
2023-02-04T15:45:24.354Z,13.40
2023-02-04T15:47:51.358Z,13.30
2023-02-04T15:50:18.379Z,13.10
2023-02-04T15:52:45.487Z,13.00
2023-02-04T15:55:12.614Z,12.80
2023-02-04T15:57:39.647Z,12.70
2023-02-04T16:00:07.478Z,12.50
2023-02-04T16:02:34.564Z,12.40
2023-02-04T16:05:01.484Z,12.30
2023-02-04T16:07:28.422Z,12.20
2023-02-04T16:09:55.370Z,12.10
2023-02-04T16:12:22.328Z,12.00
2023-02-04T16:14:49.298Z,11.90
2023-02-04T16:17:18.813Z,11.70
2023-02-04T16:19:45.938Z,11.60
2023-02-04T16:22:12.954Z,11.50
2023-02-04T16:24:39.976Z,11.40
2023-02-04T16:27:07.047Z,11.30
2023-02-04T16:29:33.977Z,11.10
2023-02-04T16:32:00.908Z,11.00
2023-02-04T16:34:29.296Z,10.90
2023-02-04T16:36:56.206Z,10.80
2023-02-04T16:39:24.376Z,10.60
2023-02-04T16:41:51.522Z,10.50
2023-02-04T16:44:18.417Z,10.40
2023-02-04T16:46:45.491Z,10.20
2023-02-04T16:49:12.470Z,10.10
2023-02-04T16:51:39.387Z,9.90
2023-02-04T16:54:06.403Z,9.80
2023-02-04T16:56:35.636Z,9.70
2023-02-04T16:59:02.952Z,9.60
2023-02-04T17:01:30.074Z,9.40
2023-02-04T17:03:59.820Z,9.40
2023-02-04T17:06:28.122Z,9.30
2023-02-04T17:08:55.647Z,9.20
2023-02-04T17:11:28.912Z,9.20
2023-02-04T17:14:00.430Z,9.10
2023-02-04T17:16:27.870Z,9.00
2023-02-04T17:18:55.314Z,9.00
2023-02-04T17:21:24.661Z,8.90
2023-02-04T17:23:51.880Z,8.90
2023-02-04T17:26:19.617Z,8.80
2023-02-04T17:28:46.545Z,8.80
2023-02-04T17:31:13.735Z,8.70
2023-02-04T17:33:40.745Z,8.70
2023-02-04T17:36:08.527Z,8.70
2023-02-04T17:38:35.520Z,8.60
2023-02-04T17:41:02.711Z,8.50
2023-02-04T17:43:29.704Z,8.50
2023-02-04T17:45:56.654Z,8.50
2023-02-04T17:48:23.592Z,8.60
2023-02-04T17:50:50.510Z,8.70
2023-02-04T17:53:17.413Z,9.10
2023-02-04T17:55:44.361Z,9.30
2023-02-04T17:58:27.061Z,9.40
2023-02-04T18:00:57.758Z,9.50
2023-02-04T18:03:29.123Z,9.70
2023-02-04T18:05:56.938Z,9.80
2023-02-04T18:08:38.263Z,10.00
2023-02-04T18:11:18.303Z,10.20
2023-02-04T18:13:45.310Z,10.20
2023-02-04T18:16:30.587Z,10.20
2023-02-04T18:19:18.490Z,10.30
2023-02-04T18:21:46.554Z,10.30
2023-02-04T18:24:42.153Z,10.30
2023-02-04T18:27:17.115Z,10.30
2023-02-04T18:29:47.784Z,10.20
2023-02-04T18:32:38.887Z,10.20
2023-02-04T18:35:31.596Z,10.00
2023-02-04T18:37:58.574Z,10.00
2023-02-04T18:40:28.309Z,9.90
2023-02-04T18:43:13.992Z,9.80
2023-02-04T18:45:41.327Z,9.80
2023-02-04T18:48:20.545Z,9.80
2023-02-04T18:50:50.316Z,9.70
2023-02-04T18:53:23.544Z,9.70
2023-02-04T18:55:53.332Z,9.60
2023-02-04T18:58:34.024Z,9.60
2023-02-04T19:01:05.525Z,9.60
2023-02-04T19:03:42.201Z,9.60
2023-02-04T19:06:25.170Z,9.60
2023-02-04T19:08:52.915Z,9.60
2023-02-04T19:11:36.644Z,9.60
2023-02-04T19:14:18.294Z,9.60
2023-02-04T19:16:52.618Z,9.50
2023-02-04T19:20:02.695Z,9.30
2023-02-04T19:22:46.912Z,9.20
2023-02-04T19:25:22.886Z,9.00
2023-02-04T19:27:59.130Z,8.90
2023-02-04T19:30:28.952Z,8.80
2023-02-04T19:33:10.114Z,8.80
2023-02-04T19:35:43.263Z,8.60
2023-02-04T19:38:43.169Z,8.50
2023-02-04T19:41:48.017Z,8.40
2023-02-04T19:44:15.132Z,8.20
2023-02-04T19:46:42.926Z,8.10
2023-02-04T19:49:21.874Z,8.00
2023-02-04T19:51:55.250Z,7.90
2023-02-04T19:54:25.269Z,7.90
2023-02-04T19:56:54.743Z,7.80
2023-02-04T19:59:28.657Z,7.70
2023-02-04T20:02:07.464Z,7.60
2023-02-04T20:04:42.856Z,7.60
2023-02-04T20:07:18.984Z,7.50
2023-02-04T20:09:46.391Z,7.40
2023-02-04T20:12:17.847Z,7.40
2023-02-04T20:14:47.633Z,7.40
2023-02-04T20:17:26.855Z,7.30
2023-02-04T20:19:53.795Z,7.30
2023-02-04T20:22:21.788Z,7.30
2023-02-04T20:24:54.513Z,7.20
2023-02-04T20:27:28.757Z,7.20
2023-02-04T20:30:23.439Z,7.10
2023-02-04T20:32:55.613Z,7.10
2023-02-04T20:35:22.822Z,7.10
2023-02-04T20:37:54.044Z,7.00
2023-02-04T20:40:36.466Z,7.00
2023-02-04T20:43:20.221Z,7.10
2023-02-04T20:45:49.696Z,7.10
2023-02-04T20:48:16.605Z,7.10
2023-02-04T20:50:54.568Z,7.00
2023-02-04T20:53:29.675Z,7.00
2023-02-04T20:56:05.115Z,7.00
2023-02-04T20:58:41.209Z,7.00
2023-02-04T21:01:38.213Z,7.00
2023-02-04T21:04:34.012Z,7.00
2023-02-04T21:07:13.958Z,7.00
2023-02-04T21:09:40.893Z,7.00
2023-02-04T21:12:08.582Z,7.00
2023-02-04T21:14:35.777Z,7.00
2023-02-04T21:17:03.420Z,7.00
2023-02-04T21:19:30.685Z,6.90
2023-02-04T21:21:58.860Z,6.80
2023-02-04T21:24:26.678Z,6.70
2023-02-04T21:26:53.770Z,6.70
2023-02-04T21:29:20.735Z,6.70
2023-02-04T21:31:47.785Z,6.70
2023-02-04T21:34:15.856Z,6.70
2023-02-04T21:36:42.782Z,6.80
2023-02-04T21:39:09.717Z,6.80
2023-02-04T21:41:36.775Z,6.80
2023-02-04T21:44:04.019Z,6.80
2023-02-04T21:46:31.242Z,6.80
2023-02-04T21:48:58.179Z,6.60
2023-02-04T21:51:25.161Z,6.60
2023-02-04T21:53:52.092Z,6.50
2023-02-04T21:56:19.050Z,6.50
2023-02-04T21:58:45.958Z,6.40
2023-02-04T22:01:12.929Z,6.40
2023-02-04T22:03:39.902Z,6.40
2023-02-04T22:06:07.357Z,6.40
2023-02-04T22:08:34.246Z,6.30
2023-02-04T22:11:01.134Z,6.30
2023-02-04T22:13:46.493Z,6.30
2023-02-04T22:16:13.532Z,6.20
2023-02-04T22:18:40.553Z,6.20
2023-02-04T22:21:07.472Z,6.10
2023-02-04T22:23:34.393Z,6.10
2023-02-04T22:26:01.353Z,6.10
2023-02-04T22:28:28.335Z,6.00
2023-02-04T22:30:55.286Z,6.00
2023-02-04T22:33:22.302Z,5.90
2023-02-04T22:35:49.242Z,5.90
2023-02-04T22:38:16.269Z,5.90
2023-02-04T22:40:43.289Z,5.80
2023-02-04T22:43:10.231Z,5.80
2023-02-04T22:45:37.185Z,5.70
2023-02-04T22:48:04.204Z,5.70
2023-02-04T22:50:31.173Z,5.60
2023-02-04T22:52:58.300Z,5.60
2023-02-04T22:55:25.270Z,5.50
2023-02-04T22:57:52.176Z,5.50
2023-02-04T23:00:19.216Z,5.40
2023-02-04T23:02:46.140Z,5.40
2023-02-04T23:05:13.040Z,5.40
2023-02-04T23:07:40.050Z,5.30
2023-02-04T23:10:07.552Z,5.30
2023-02-04T23:12:34.555Z,5.30
2023-02-04T23:15:01.596Z,5.40
2023-02-04T23:17:28.666Z,5.40
2023-02-04T23:19:55.714Z,5.40
2023-02-04T23:22:22.655Z,5.50
2023-02-04T23:24:49.712Z,5.60
2023-02-04T23:27:16.876Z,5.70
2023-02-04T23:29:43.955Z,5.70
2023-02-04T23:32:10.942Z,5.70
2023-02-04T23:34:38.151Z,5.70
2023-02-04T23:37:05.091Z,5.70
2023-02-04T23:39:32.042Z,5.80
2023-02-04T23:41:59.133Z,5.80
2023-02-04T23:44:26.103Z,5.70
2023-02-04T23:46:53.072Z,5.70
2023-02-04T23:49:20.135Z,5.60
2023-02-04T23:51:47.211Z,5.60
2023-02-04T23:54:14.264Z,5.60
2023-02-04T23:56:41.557Z,5.60
2023-02-04T23:59:08.676Z,5.60
